createdAt,value
2023-10-03T00:01:32.220Z,89.81
2023-10-03T00:03:33.865Z,89.65
2023-10-03T00:05:36.645Z,89.45
2023-10-03T00:07:38.852Z,89.45
2023-10-03T00:09:40.545Z,88.62
2023-10-03T00:11:42.098Z,88.84
2023-10-03T00:13:43.596Z,89.10
2023-10-03T00:15:46.088Z,89.23
2023-10-03T00:17:48.189Z,88.93
2023-10-03T00:19:49.729Z,88.40
2023-10-03T00:21:51.172Z,88.09
2023-10-03T00:23:52.717Z,88.61
2023-10-03T00:25:57.291Z,87.85
2023-10-03T00:28:01.909Z,86.67
2023-10-03T00:30:04.124Z,86.35
2023-10-03T00:32:07.481Z,86.86
2023-10-03T00:34:08.906Z,87.02
2023-10-03T00:36:25.229Z,86.47
2023-10-03T00:38:26.736Z,86.02
2023-10-03T00:40:29.193Z,86.62
2023-10-03T00:42:32.377Z,86.02
2023-10-03T00:44:33.903Z,86.65
2023-10-03T00:46:35.390Z,85.76
2023-10-03T00:48:36.908Z,85.43
2023-10-03T00:50:39.707Z,85.44
2023-10-03T00:52:43.379Z,85.26
2023-10-03T00:54:45.223Z,85.73
2023-10-03T00:56:48.502Z,84.59
2023-10-03T00:58:52.499Z,85.41
2023-10-03T01:00:56.067Z,85.58
2023-10-03T01:02:57.737Z,84.30
2023-10-03T01:04:59.329Z,83.97
2023-10-03T01:07:01.534Z,83.49
2023-10-03T01:09:04.330Z,84.65
2023-10-03T01:11:17.003Z,84.60
2023-10-03T01:13:21.162Z,84.81
2023-10-03T01:15:23.297Z,84.07
2023-10-03T01:17:27.565Z,82.75
2023-10-03T01:19:31.807Z,83.88
2023-10-03T01:21:33.317Z,83.75
2023-10-03T01:23:41.025Z,82.53
2023-10-03T01:25:45.644Z,82.65
2023-10-03T01:27:47.489Z,82.80
2023-10-03T01:29:49.098Z,82.04
2023-10-03T01:31:54.173Z,82.22
2023-10-03T01:33:55.679Z,82.23
2023-10-03T01:35:57.398Z,81.31
2023-10-03T01:37:59.001Z,81.16
2023-10-03T01:40:00.664Z,81.29
2023-10-03T01:42:02.124Z,82.39
2023-10-03T01:44:03.847Z,82.21
2023-10-03T01:46:05.349Z,81.21
2023-10-03T01:48:08.547Z,81.06
2023-10-03T01:50:12.524Z,80.86
2023-10-03T01:52:13.991Z,81.54
2023-10-03T01:54:16.905Z,80.79
2023-10-03T01:56:18.323Z,81.03
2023-10-03T01:58:24.807Z,80.76
2023-10-03T02:00:26.510Z,81.96
2023-10-03T02:02:28.102Z,81.46
2023-10-03T02:04:30.132Z,81.72
2023-10-03T02:06:31.868Z,81.75
2023-10-03T02:08:35.030Z,81.27
2023-10-03T02:10:36.620Z,80.83
2023-10-03T02:12:38.139Z,80.25
2023-10-03T02:14:40.699Z,81.37
2023-10-03T02:16:47.382Z,79.92
2023-10-03T02:18:48.715Z,81.25
2023-10-03T02:21:01.012Z,80.95
2023-10-03T02:23:06.274Z,80.36
2023-10-03T02:25:10.092Z,80.54
2023-10-03T02:27:12.201Z,81.48
2023-10-03T02:29:14.163Z,80.81
2023-10-03T02:31:16.292Z,81.67
2023-10-03T02:33:19.217Z,82.45
2023-10-03T02:35:25.614Z,83.13
2023-10-03T02:37:27.091Z,82.05
2023-10-03T02:39:36.433Z,81.42
2023-10-03T02:41:39.238Z,81.46
2023-10-03T02:43:43.598Z,81.52
2023-10-03T02:45:45.509Z,81.75
2023-10-03T02:47:47.158Z,82.19
2023-10-03T02:49:50.634Z,81.28
2023-10-03T02:51:52.083Z,82.82
2023-10-03T02:53:53.527Z,81.55
2023-10-03T02:55:55.399Z,81.12
2023-10-03T02:57:56.894Z,80.47
2023-10-03T02:59:58.905Z,81.59
2023-10-03T03:02:00.389Z,81.48
2023-10-03T03:04:02.819Z,79.24
2023-10-03T03:06:14.973Z,80.92
2023-10-03T03:08:19.643Z,80.29
2023-10-03T03:10:22.235Z,79.80
2023-10-03T03:12:23.649Z,80.17
2023-10-03T03:14:25.776Z,78.63
2023-10-03T03:16:27.298Z,79.44
2023-10-03T03:18:33.221Z,80.79
2023-10-03T03:20:39.459Z,80.48
2023-10-03T03:22:40.906Z,80.55
2023-10-03T03:24:42.936Z,80.10
2023-10-03T03:26:48.807Z,79.74
2023-10-03T03:28:51.783Z,78.94
2023-10-03T03:30:57.408Z,79.50
2023-10-03T03:33:01.991Z,79.92
2023-10-03T03:35:04.188Z,78.67
2023-10-03T03:37:24.195Z,78.44
2023-10-03T03:39:28.018Z,77.82
2023-10-03T03:41:30.265Z,79.91
2023-10-03T03:43:32.743Z,78.34
2023-10-03T03:45:35.011Z,78.06
2023-10-03T03:47:36.994Z,78.65
2023-10-03T03:49:38.539Z,79.46
2023-10-03T03:51:41.142Z,80.71
2023-10-03T03:53:43.550Z,80.01
2023-10-03T03:55:45.187Z,79.26
2023-10-03T03:57:46.842Z,79.15
2023-10-03T03:59:48.670Z,79.55
2023-10-03T04:01:51.452Z,79.40
2023-10-03T04:03:56.869Z,81.22
2023-10-03T04:05:58.665Z,81.43
2023-10-03T04:08:00.590Z,80.57
2023-10-03T04:10:02.657Z,79.25
2023-10-03T04:12:04.721Z,78.93
2023-10-03T04:14:07.970Z,79.13
2023-10-03T04:16:12.891Z,78.86
2023-10-03T04:18:17.207Z,78.28
2023-10-03T04:20:36.688Z,78.39
2023-10-03T04:22:38.143Z,78.74
2023-10-03T04:24:39.570Z,78.23
2023-10-03T04:26:44.010Z,79.18
2023-10-03T04:28:45.966Z,79.10
2023-10-03T04:30:49.065Z,80.25
2023-10-03T04:32:50.695Z,77.75
2023-10-03T04:34:52.382Z,79.24
2023-10-03T04:36:53.904Z,78.60
2023-10-03T04:38:55.484Z,78.17
2023-10-03T04:40:57.083Z,77.95
2023-10-03T04:42:59.184Z,79.64
2023-10-03T04:45:00.773Z,77.66
2023-10-03T04:47:04.642Z,79.50
2023-10-03T04:49:08.416Z,79.71
2023-10-03T04:51:15.355Z,79.72
2023-10-03T04:53:16.942Z,78.31
2023-10-03T04:55:19.800Z,79.32
2023-10-03T04:57:21.273Z,77.97
2023-10-03T04:59:22.924Z,78.26
2023-10-03T05:01:26.712Z,76.15
2023-10-03T05:03:29.685Z,78.55
2023-10-03T05:05:31.869Z,78.08
2023-10-03T05:07:33.548Z,78.69
2023-10-03T05:09:34.973Z,78.46
2023-10-03T05:11:36.486Z,78.13
2023-10-03T05:13:39.324Z,78.68
2023-10-03T05:15:40.945Z,78.74
2023-10-03T05:17:44.823Z,79.85
2023-10-03T05:19:46.476Z,81.12
2023-10-03T05:21:48.853Z,80.74
2023-10-03T05:23:50.423Z,82.07
2023-10-03T05:25:52.201Z,81.92
2023-10-03T05:27:54.477Z,82.32
2023-10-03T05:30:00.590Z,80.22
2023-10-03T05:32:02.326Z,78.92
2023-10-03T05:34:05.113Z,78.73
2023-10-03T05:36:06.791Z,79.56
2023-10-03T05:38:11.812Z,80.27
2023-10-03T05:40:13.621Z,79.26
2023-10-03T05:42:18.576Z,79.73
2023-10-03T05:44:22.247Z,81.56
2023-10-03T05:46:23.893Z,81.29
2023-10-03T05:48:26.692Z,81.06
2023-10-03T05:50:28.908Z,79.35
2023-10-03T05:52:30.425Z,79.93
2023-10-03T05:54:32.109Z,79.13
2023-10-03T05:56:33.695Z,79.58
2023-10-03T05:58:35.375Z,79.18
2023-10-03T06:00:37.245Z,79.66
2023-10-03T06:02:40.623Z,79.48
2023-10-03T06:04:42.268Z,79.84
2023-10-03T06:06:44.919Z,80.19
2023-10-03T06:08:50.069Z,79.54
2023-10-03T06:10:52.090Z,79.70
2023-10-03T06:12:55.644Z,80.01
2023-10-03T06:14:57.183Z,79.95
2023-10-03T06:16:58.799Z,81.00
2023-10-03T06:19:00.408Z,81.26
2023-10-03T06:21:01.935Z,80.04
2023-10-03T06:23:05.340Z,80.82
2023-10-03T06:25:08.496Z,80.14
2023-10-03T06:27:12.284Z,79.82
2023-10-03T06:29:15.991Z,79.98
2023-10-03T06:31:21.754Z,79.27
2023-10-03T06:33:23.386Z,79.63
2023-10-03T06:35:24.946Z,80.03
2023-10-03T06:37:26.529Z,79.85
2023-10-03T06:39:28.154Z,79.89
2023-10-03T06:41:29.586Z,80.64
2023-10-03T06:43:32.225Z,80.07
2023-10-03T06:45:33.649Z,80.89
2023-10-03T06:47:36.280Z,80.62
2023-10-03T06:49:37.949Z,80.31
2023-10-03T06:51:39.429Z,81.09
2023-10-03T06:53:48.286Z,80.74
2023-10-03T06:55:51.077Z,80.40
2023-10-03T06:57:53.306Z,80.98
2023-10-03T06:59:55.763Z,80.07
2023-10-03T07:01:57.305Z,80.96
2023-10-03T07:03:59.449Z,81.44
2023-10-03T07:06:01.124Z,81.07
2023-10-03T07:08:04.640Z,80.16
2023-10-03T07:10:08.461Z,80.28
2023-10-03T07:12:09.986Z,81.16
2023-10-03T07:14:15.404Z,80.98
2023-10-03T07:16:17.489Z,80.73
2023-10-03T07:18:19.395Z,80.84
2023-10-03T07:20:21.357Z,80.92
2023-10-03T07:22:22.907Z,80.53
2023-10-03T07:24:29.615Z,80.28
2023-10-03T07:26:31.200Z,79.67
2023-10-03T07:28:33.271Z,79.76
2023-10-03T07:30:35.108Z,79.80
2023-10-03T07:32:36.786Z,79.84
2023-10-03T07:34:43.501Z,80.62
2023-10-03T07:36:46.424Z,81.01
2023-10-03T07:38:48.043Z,80.74
2023-10-03T07:40:49.647Z,81.56
2023-10-03T07:42:51.177Z,80.58
2023-10-03T07:44:53.489Z,81.00
2023-10-03T07:46:54.946Z,81.66
2023-10-03T07:48:56.507Z,81.37
2023-10-03T07:50:58.162Z,81.10
2023-10-03T07:52:59.791Z,80.88
2023-10-03T07:55:01.775Z,81.39
2023-10-03T07:57:07.088Z,81.11
2023-10-03T07:59:08.792Z,80.45
2023-10-03T08:01:10.327Z,79.65
2023-10-03T08:03:13.212Z,79.73
2023-10-03T08:05:14.920Z,79.33
2023-10-03T08:07:23.301Z,79.33
2023-10-03T08:09:26.284Z,79.35
2023-10-03T08:11:31.336Z,78.96
2023-10-03T08:13:32.839Z,79.38
2023-10-03T08:15:34.318Z,79.03
2023-10-03T08:17:37.260Z,78.81
2023-10-03T08:19:41.472Z,78.78
2023-10-03T08:21:45.169Z,79.05
2023-10-03T08:23:52.709Z,79.20
2023-10-03T08:26:02.411Z,78.92
2023-10-03T08:28:10.979Z,79.24
2023-10-03T08:30:27.121Z,79.02
2023-10-03T08:32:29.140Z,79.80
2023-10-03T08:34:31.644Z,79.43
2023-10-03T08:36:39.072Z,79.04
2023-10-03T08:38:44.685Z,79.15
2023-10-03T08:40:50.991Z,79.39
2023-10-03T08:42:54.384Z,78.53
2023-10-03T08:45:00.177Z,78.73
2023-10-03T08:47:03.084Z,79.35
2023-10-03T08:49:09.920Z,79.62
2023-10-03T08:51:18.230Z,79.69
2023-10-03T08:53:28.743Z,78.24
2023-10-03T08:55:32.283Z,77.06
2023-10-03T08:57:34.023Z,77.22
2023-10-03T08:59:35.474Z,76.67
2023-10-03T09:01:47.895Z,76.58
2023-10-03T09:03:59.677Z,75.93
2023-10-03T09:06:02.004Z,76.28
2023-10-03T09:08:09.471Z,76.55
2023-10-03T09:10:23.658Z,76.86
2023-10-03T09:12:27.010Z,77.30
2023-10-03T09:14:29.159Z,76.90
2023-10-03T09:16:30.739Z,77.06
2023-10-03T09:18:41.993Z,77.15
2023-10-03T09:20:44.025Z,75.75
2023-10-03T09:22:48.098Z,75.17
2023-10-03T09:24:49.782Z,74.52
2023-10-03T09:27:03.355Z,74.68
2023-10-03T09:29:10.577Z,74.55
2023-10-03T09:31:12.162Z,74.79
2023-10-03T09:33:17.887Z,75.04
2023-10-03T09:35:19.587Z,75.11
2023-10-03T09:37:21.201Z,75.29
2023-10-03T09:39:22.753Z,75.51
2023-10-03T09:41:25.668Z,74.93
2023-10-03T09:43:30.582Z,75.85
2023-10-03T09:45:32.623Z,76.12
2023-10-03T09:47:39.068Z,75.63
2023-10-03T09:49:41.868Z,75.57
2023-10-03T09:51:52.802Z,76.14
2023-10-03T09:53:58.394Z,76.28
2023-10-03T09:56:02.095Z,75.86
2023-10-03T09:58:05.706Z,75.87
2023-10-03T10:00:24.676Z,76.00
2023-10-03T10:02:37.065Z,76.30
2023-10-03T10:04:38.741Z,75.93
2023-10-03T10:06:52.162Z,75.10
2023-10-03T10:09:14.306Z,75.22
2023-10-03T10:11:16.334Z,73.85
2023-10-03T10:13:23.557Z,74.55
2023-10-03T10:15:28.259Z,74.10
2023-10-03T10:17:46.438Z,73.85
2023-10-03T10:20:14.306Z,73.47
2023-10-03T10:22:15.874Z,74.80
2023-10-03T10:24:17.783Z,74.55
2023-10-03T10:26:34.107Z,74.09
2023-10-03T10:28:38.756Z,73.95
2023-10-03T10:30:44.125Z,74.11
2023-10-03T10:33:22.083Z,75.38
2023-10-03T10:35:57.827Z,75.16
2023-10-03T10:37:59.801Z,75.72
2023-10-03T10:40:33.951Z,75.52
2023-10-03T10:42:56.546Z,76.68
2023-10-03T10:45:03.962Z,75.60
2023-10-03T10:47:06.895Z,75.46
2023-10-03T10:49:38.394Z,76.33
2023-10-03T10:51:39.889Z,77.29
2023-10-03T10:53:46.015Z,78.49
2023-10-03T10:55:47.676Z,79.25
2023-10-03T10:58:09.587Z,80.83
2023-10-03T11:00:18.592Z,85.90
2023-10-03T11:02:29.783Z,88.63
2023-10-03T11:04:35.946Z,90.44
2023-10-03T11:06:37.538Z,92.22
2023-10-03T11:08:47.316Z,93.14
2023-10-03T11:10:56.130Z,93.75
2023-10-03T11:13:04.964Z,94.51
2023-10-03T11:15:11.953Z,94.01
2023-10-03T11:17:13.456Z,94.83
2023-10-03T11:19:15.019Z,94.98
2023-10-03T11:21:17.380Z,94.27
2023-10-03T11:23:19.483Z,95.58
2023-10-03T11:25:21.304Z,95.97
2023-10-03T11:27:30.579Z,97.00
2023-10-03T11:29:47.969Z,96.59
2023-10-03T11:31:49.615Z,96.21
2023-10-03T11:33:51.160Z,96.20
2023-10-03T11:35:53.926Z,96.71
2023-10-03T11:37:55.538Z,96.37
2023-10-03T11:40:08.566Z,97.24
2023-10-03T11:42:25.608Z,97.65
2023-10-03T11:44:28.305Z,97.27
2023-10-03T11:46:39.358Z,97.38
2023-10-03T11:48:44.893Z,96.94
2023-10-03T11:50:47.335Z,97.60
2023-10-03T11:52:50.014Z,96.16
2023-10-03T11:54:51.494Z,96.18
2023-10-03T11:56:53.041Z,93.94
2023-10-03T11:58:55.371Z,92.78
2023-10-03T12:00:57.337Z,93.45
2023-10-03T12:02:59.347Z,92.39
2023-10-03T12:05:01.225Z,93.47
2023-10-03T12:07:02.689Z,93.37
2023-10-03T12:09:05.067Z,93.65
2023-10-03T12:11:07.515Z,92.49
2023-10-03T12:13:10.852Z,91.70
2023-10-03T12:15:13.780Z,91.23
2023-10-03T12:17:15.280Z,90.19
2023-10-03T12:19:17.002Z,89.32
2023-10-03T12:21:18.651Z,92.07
2023-10-03T12:23:20.180Z,91.41
2023-10-03T12:25:24.833Z,91.29
2023-10-03T12:27:27.572Z,91.57
2023-10-03T12:29:32.955Z,92.15
2023-10-03T12:31:34.882Z,93.17
2023-10-03T12:33:36.539Z,91.22
2023-10-03T12:35:38.117Z,91.90
2023-10-03T12:37:41.647Z,90.89
2023-10-03T12:39:43.208Z,92.04
2023-10-03T12:41:47.901Z,91.03
2023-10-03T12:43:49.693Z,93.85
2023-10-03T12:45:51.281Z,94.91
2023-10-03T12:47:54.870Z,96.17
2023-10-03T12:49:58.797Z,96.88
2023-10-03T12:52:01.216Z,98.04
2023-10-03T12:54:05.730Z,97.56
2023-10-03T12:56:10.013Z,99.96
2023-10-03T12:58:13.428Z,98.94
2023-10-03T13:00:21.400Z,98.47
2023-10-03T13:02:23.892Z,98.52
2023-10-03T13:04:28.946Z,98.60
2023-10-03T13:06:31.726Z,97.82
2023-10-03T13:08:33.171Z,97.97
2023-10-03T13:10:35.282Z,97.16
2023-10-03T13:12:36.758Z,96.59
2023-10-03T13:14:38.235Z,96.60
2023-10-03T13:16:40.164Z,96.29
2023-10-03T13:18:41.777Z,95.49
2023-10-03T13:20:44.172Z,96.22
2023-10-03T13:22:48.422Z,95.22
2023-10-03T13:24:50.164Z,96.10
2023-10-03T13:26:54.187Z,96.11
2023-10-03T13:28:55.699Z,96.93
2023-10-03T13:30:57.518Z,98.24
2023-10-03T13:33:00.028Z,98.46
2023-10-03T13:35:04.392Z,97.51
2023-10-03T13:37:06.844Z,98.75
2023-10-03T13:39:09.253Z,98.39
2023-10-03T13:41:11.762Z,96.26
2023-10-03T13:43:20.081Z,95.36
2023-10-03T13:45:22.369Z,93.14
2023-10-03T13:47:24.724Z,93.49
2023-10-03T13:49:26.528Z,93.91
2023-10-03T13:51:30.584Z,93.13
2023-10-03T13:53:32.606Z,92.25
2023-10-03T13:55:34.483Z,91.37
2023-10-03T13:57:41.344Z,91.40
2023-10-03T13:59:45.549Z,93.11
2023-10-03T14:01:47.117Z,93.84
2023-10-03T14:03:48.691Z,93.99
2023-10-03T14:05:50.145Z,93.75
2023-10-03T14:07:51.944Z,92.88
2023-10-03T14:09:54.746Z,92.97
2023-10-03T14:11:57.870Z,93.86
2023-10-03T14:13:59.366Z,95.30
2023-10-03T14:16:00.813Z,96.65
2023-10-03T14:18:02.505Z,94.85
2023-10-03T14:20:06.637Z,97.15
2023-10-03T14:22:08.074Z,96.12
2023-10-03T14:24:10.484Z,94.00
2023-10-03T14:26:12.069Z,91.00
2023-10-03T14:28:13.565Z,88.13
2023-10-03T14:30:15.219Z,87.81
2023-10-03T14:32:16.922Z,79.99
2023-10-03T14:34:18.668Z,84.13
2023-10-03T14:36:20.138Z,87.79
2023-10-03T14:38:21.733Z,89.19
2023-10-03T14:40:23.205Z,87.37
2023-10-03T14:42:24.899Z,86.92
2023-10-03T14:44:26.388Z,88.60
2023-10-03T14:46:28.782Z,89.45
2023-10-03T14:48:30.346Z,91.51
2023-10-03T14:50:33.231Z,93.56
2023-10-03T14:52:35.290Z,91.60
2023-10-03T14:54:36.807Z,94.16
2023-10-03T14:56:39.253Z,93.72
2023-10-03T14:58:40.709Z,93.20
2023-10-03T15:00:43.198Z,92.28
2023-10-03T15:02:45.614Z,94.60
2023-10-03T15:04:47.192Z,95.85
2023-10-03T15:06:48.807Z,94.69
2023-10-03T15:08:50.429Z,96.16
2023-10-03T15:11:02.711Z,89.08
2023-10-03T15:13:05.378Z,87.84
2023-10-03T15:15:07.401Z,85.15
2023-10-03T15:17:11.922Z,86.42
2023-10-03T15:19:13.837Z,88.41
2023-10-03T15:21:16.803Z,88.24
2023-10-03T15:23:18.677Z,90.21
2023-10-03T15:25:20.315Z,89.89
2023-10-03T15:27:22.454Z,89.87
2023-10-03T15:29:24.204Z,91.54
2023-10-03T15:31:26.348Z,89.64
2023-10-03T15:33:28.531Z,92.33
2023-10-03T15:35:30.043Z,90.97
2023-10-03T15:37:32.096Z,93.42
2023-10-03T15:39:33.554Z,93.21
2023-10-03T15:41:37.045Z,92.02
2023-10-03T15:43:38.497Z,93.21
2023-10-03T15:45:40.561Z,95.19
2023-10-03T15:47:42.585Z,94.16
2023-10-03T15:49:44.550Z,94.35
2023-10-03T15:51:48.377Z,95.27
2023-10-03T15:53:50.094Z,95.83
2023-10-03T15:55:51.611Z,94.58
2023-10-03T15:57:53.139Z,95.39
2023-10-03T15:59:54.720Z,93.44
2023-10-03T16:01:56.974Z,94.01
2023-10-03T16:03:58.752Z,93.96
2023-10-03T16:06:00.399Z,94.47
2023-10-03T16:08:02.960Z,95.17
2023-10-03T16:10:05.359Z,95.76
2023-10-03T16:12:07.631Z,95.72
2023-10-03T16:14:09.136Z,95.88
2023-10-03T16:16:11.151Z,96.76
2023-10-03T16:18:12.755Z,98.22
2023-10-03T16:20:17.273Z,98.10
2023-10-03T16:22:18.765Z,97.16
2023-10-03T16:24:22.621Z,97.32
2023-10-03T16:26:24.595Z,97.46
2023-10-03T16:28:26.127Z,97.20
2023-10-03T16:30:27.733Z,98.80
2023-10-03T16:32:29.197Z,98.41
2023-10-03T16:34:31.155Z,99.26
2023-10-03T16:36:32.600Z,98.14
2023-10-03T16:38:34.873Z,99.03
2023-10-03T16:40:36.357Z,100.00
2023-10-03T16:42:39.193Z,99.82
2023-10-03T16:44:40.790Z,99.89
2023-10-03T16:46:42.319Z,99.20
2023-10-03T16:48:44.433Z,99.41
2023-10-03T16:50:46.032Z,100.00
2023-10-03T16:52:48.442Z,100.00
2023-10-03T16:54:49.874Z,100.00
2023-10-03T16:56:53.303Z,100.00
2023-10-03T16:58:54.752Z,100.00
2023-10-03T17:00:56.233Z,100.00
2023-10-03T17:02:57.884Z,100.00
2023-10-03T17:04:59.509Z,100.00
2023-10-03T17:07:00.959Z,100.00
2023-10-03T17:09:04.306Z,100.00
2023-10-03T17:11:05.943Z,100.00
2023-10-03T17:13:07.714Z,100.00
2023-10-03T17:15:13.074Z,100.00
2023-10-03T17:17:14.532Z,100.00
2023-10-03T17:19:16.232Z,100.00
2023-10-03T17:21:21.713Z,100.00
2023-10-03T17:23:23.308Z,100.00
2023-10-03T17:25:25.571Z,100.00
2023-10-03T17:27:26.984Z,100.00
2023-10-03T17:29:30.269Z,100.00
2023-10-03T17:31:31.679Z,100.00
2023-10-03T17:33:33.322Z,100.00
2023-10-03T17:35:34.962Z,100.00
2023-10-03T17:37:45.418Z,100.00
2023-10-03T17:39:47.055Z,100.00
2023-10-03T17:41:49.333Z,100.00
2023-10-03T17:43:50.802Z,100.00
2023-10-03T17:45:52.326Z,100.00
2023-10-03T17:47:53.910Z,100.00
2023-10-03T17:49:57.328Z,100.00
2023-10-03T17:51:58.771Z,100.00
2023-10-03T17:54:00.325Z,100.00
2023-10-03T17:56:03.442Z,100.00
2023-10-03T17:58:04.902Z,100.00
2023-10-03T18:00:11.864Z,100.00
2023-10-03T18:04:15.284Z,100.00
2023-10-03T18:06:17.072Z,100.00
2023-10-03T18:08:18.625Z,100.00
2023-10-03T18:10:23.757Z,100.00
2023-10-03T18:12:25.330Z,100.00
2023-10-03T18:14:26.785Z,100.00
2023-10-03T18:16:28.227Z,100.00
2023-10-03T18:18:30.746Z,100.00
2023-10-03T18:20:33.179Z,100.00
2023-10-03T18:22:34.818Z,100.00
2023-10-03T18:24:37.405Z,100.00
2023-10-03T18:26:39.179Z,100.00
2023-10-03T18:28:40.706Z,100.00
2023-10-03T18:30:45.094Z,100.00
2023-10-03T18:32:47.925Z,100.00
2023-10-03T18:34:49.465Z,100.00
2023-10-03T18:36:51.119Z,100.00
2023-10-03T18:38:52.626Z,100.00
2023-10-03T18:40:54.602Z,100.00
2023-10-03T18:42:56.093Z,100.00
2023-10-03T18:44:57.542Z,100.00
2023-10-03T18:46:59.020Z,100.00
2023-10-03T18:49:00.470Z,100.00
2023-10-03T18:51:03.726Z,100.00
2023-10-03T18:53:07.038Z,100.00
2023-10-03T18:55:13.043Z,100.00
2023-10-03T18:57:14.951Z,100.00
2023-10-03T18:59:16.902Z,100.00
2023-10-03T19:01:23.654Z,100.00
2023-10-03T19:03:31.499Z,100.00
2023-10-03T19:05:33.135Z,100.00
2023-10-03T19:07:41.006Z,100.00
2023-10-03T19:09:42.645Z,100.00
2023-10-03T19:11:46.634Z,100.00
2023-10-03T19:13:48.300Z,100.00
2023-10-03T19:15:50.279Z,100.00
2023-10-03T19:17:51.953Z,100.00
2023-10-03T19:19:57.584Z,100.00
2023-10-03T19:21:59.094Z,100.00
2023-10-03T19:24:00.550Z,100.00
2023-10-03T19:26:01.997Z,100.00
2023-10-03T19:28:04.099Z,100.00
2023-10-03T19:30:08.350Z,100.00
2023-10-03T19:32:10.450Z,100.00
2023-10-03T19:34:12.228Z,100.00
2023-10-03T19:36:14.896Z,100.00
2023-10-03T19:38:16.386Z,100.00
2023-10-03T19:40:19.139Z,100.00
2023-10-03T19:42:22.992Z,100.00
2023-10-03T19:44:24.520Z,100.00
2023-10-03T19:46:27.005Z,100.00
2023-10-03T19:48:28.772Z,100.00
2023-10-03T19:50:30.413Z,100.00
2023-10-03T19:52:33.226Z,100.00
2023-10-03T19:54:34.699Z,100.00
2023-10-03T19:56:37.041Z,100.00
2023-10-03T19:58:41.608Z,100.00
2023-10-03T20:00:43.941Z,100.00
2023-10-03T20:02:45.863Z,100.00
2023-10-03T20:04:47.606Z,100.00
2023-10-03T20:06:49.138Z,100.00
2023-10-03T20:08:50.704Z,100.00
2023-10-03T20:10:55.305Z,100.00
2023-10-03T20:12:56.777Z,100.00
2023-10-03T20:14:58.723Z,100.00
2023-10-03T20:17:00.676Z,100.00
2023-10-03T20:19:02.646Z,100.00
2023-10-03T20:21:05.176Z,100.00
2023-10-03T20:23:07.187Z,100.00
2023-10-03T20:25:10.238Z,100.00
2023-10-03T20:27:11.799Z,100.00
2023-10-03T20:29:13.234Z,100.00
2023-10-03T20:31:14.803Z,100.00
2023-10-03T20:33:16.322Z,100.00
2023-10-03T20:35:17.986Z,100.00
2023-10-03T20:37:19.545Z,100.00
2023-10-03T20:39:21.831Z,100.00
2023-10-03T20:41:23.408Z,100.00
2023-10-03T20:43:24.870Z,100.00
2023-10-03T20:45:26.348Z,100.00
2023-10-03T20:47:27.872Z,100.00
2023-10-03T20:49:29.379Z,100.00
2023-10-03T20:51:30.801Z,100.00
2023-10-03T20:53:32.260Z,100.00
2023-10-03T20:55:36.573Z,100.00
2023-10-03T20:57:38.644Z,99.88
2023-10-03T20:59:40.146Z,99.93
2023-10-03T21:01:42.877Z,100.00
2023-10-03T21:03:45.337Z,100.00
2023-10-03T21:05:47.354Z,100.00
2023-10-03T21:07:49.565Z,100.00
2023-10-03T21:09:51.724Z,100.00
2023-10-03T21:11:53.316Z,100.00
2023-10-03T21:13:54.981Z,100.00
2023-10-03T21:15:56.411Z,100.00
2023-10-03T21:17:58.030Z,100.00
2023-10-03T21:19:59.656Z,100.00
2023-10-03T21:22:01.200Z,100.00
2023-10-03T21:24:02.741Z,100.00
2023-10-03T21:26:10.856Z,100.00
2023-10-03T21:28:13.421Z,100.00
2023-10-03T21:30:14.944Z,100.00
2023-10-03T21:32:16.450Z,100.00
2023-10-03T21:34:17.929Z,100.00
2023-10-03T21:36:20.004Z,100.00
2023-10-03T21:38:22.546Z,100.00
2023-10-03T21:40:24.038Z,100.00
2023-10-03T21:42:28.999Z,100.00
2023-10-03T21:44:32.747Z,100.00
2023-10-03T21:46:34.255Z,100.00
2023-10-03T21:48:36.279Z,100.00
2023-10-03T21:50:38.179Z,100.00
2023-10-03T21:52:40.141Z,100.00
2023-10-03T21:54:41.540Z,100.00
2023-10-03T21:56:43.300Z,100.00
2023-10-03T21:58:44.854Z,100.00
2023-10-03T22:00:50.304Z,100.00
2023-10-03T22:02:56.226Z,100.00
2023-10-03T22:04:58.864Z,100.00
2023-10-03T22:07:00.764Z,100.00
2023-10-03T22:11:27.766Z,100.00
2023-10-03T22:13:31.741Z,100.00
2023-10-03T22:15:33.274Z,100.00
2023-10-03T22:17:35.081Z,100.00
2023-10-03T22:19:36.611Z,100.00
2023-10-03T22:21:38.296Z,100.00
2023-10-03T22:23:40.712Z,100.00
2023-10-03T22:25:42.217Z,100.00
2023-10-03T22:27:43.676Z,100.00
2023-10-03T22:29:45.338Z,100.00
2023-10-03T22:31:46.838Z,100.00
2023-10-03T22:33:49.241Z,100.00
2023-10-03T22:35:51.103Z,100.00
2023-10-03T22:38:05.892Z,100.00
2023-10-03T22:40:11.617Z,100.00
2023-10-03T22:42:13.386Z,100.00
2023-10-03T22:44:14.856Z,100.00
2023-10-03T22:46:16.303Z,100.00
2023-10-03T22:48:18.150Z,100.00
2023-10-03T22:50:19.810Z,100.00
2023-10-03T22:52:21.942Z,100.00
2023-10-03T22:54:23.457Z,100.00
2023-10-03T22:56:26.740Z,100.00
2023-10-03T22:58:28.275Z,100.00
2023-10-03T23:00:30.358Z,100.00
2023-10-03T23:02:32.274Z,100.00
2023-10-03T23:04:33.835Z,100.00
2023-10-03T23:06:35.344Z,100.00
2023-10-03T23:08:36.959Z,100.00
2023-10-03T23:10:38.481Z,100.00
2023-10-03T23:12:40.372Z,100.00
2023-10-03T23:14:41.960Z,100.00
2023-10-03T23:16:43.434Z,100.00
2023-10-03T23:18:44.922Z,100.00
2023-10-03T23:20:47.363Z,100.00
2023-10-03T23:22:50.901Z,100.00
2023-10-03T23:24:53.351Z,100.00
2023-10-03T23:26:55.823Z,100.00
2023-10-03T23:28:57.587Z,100.00
2023-10-03T23:30:59.025Z,100.00
2023-10-03T23:33:00.522Z,100.00
2023-10-03T23:35:02.007Z,100.00
2023-10-03T23:37:04.431Z,100.00
2023-10-03T23:39:07.508Z,100.00
2023-10-03T23:41:10.741Z,100.00
2023-10-03T23:43:12.284Z,100.00
2023-10-03T23:45:15.152Z,100.00
2023-10-03T23:47:17.282Z,100.00
2023-10-03T23:49:18.730Z,100.00
2023-10-03T23:51:20.179Z,100.00
2023-10-03T23:53:22.945Z,100.00
2023-10-03T23:55:24.611Z,100.00
2023-10-03T23:57:29.590Z,100.00
2023-10-03T23:59:31.444Z,100.00
